createdAt,value
2023-03-12T00:01:50.507Z,-4.19
2023-03-12T00:04:36.567Z,-4.05
2023-03-12T00:07:22.501Z,-4.02
2023-03-12T00:10:08.595Z,-4.02
2023-03-12T00:12:54.311Z,-3.97
2023-03-12T00:15:39.795Z,-3.94
2023-03-12T00:18:25.309Z,-3.91
2023-03-12T00:21:10.986Z,-4.43
2023-03-12T00:23:56.527Z,-4.04
2023-03-12T00:26:42.254Z,-4.22
2023-03-12T00:29:28.376Z,-4.11
2023-03-12T00:32:14.550Z,-4.32
2023-03-12T00:34:59.747Z,-4.27
2023-03-12T00:37:45.458Z,-4.16
2023-03-12T00:40:31.161Z,-4.20
2023-03-12T00:43:17.182Z,-4.56
2023-03-12T00:46:02.662Z,-4.20
2023-03-12T00:48:48.211Z,-4.39
2023-03-12T00:51:33.651Z,-4.27
2023-03-12T00:54:18.823Z,-4.14
2023-03-12T00:57:04.334Z,-4.11
2023-03-12T00:59:50.512Z,-4.12
2023-03-12T01:02:36.996Z,-4.12
2023-03-12T01:05:24.094Z,-4.15
2023-03-12T01:08:10.874Z,-4.38
2023-03-12T01:10:56.435Z,-4.24
2023-03-12T01:13:43.389Z,-4.28
2023-03-12T01:16:29.604Z,-4.30
2023-03-12T01:19:15.066Z,-4.32
2023-03-12T01:22:00.287Z,-4.35
2023-03-12T01:24:46.473Z,-4.40
2023-03-12T01:27:31.931Z,-4.61
2023-03-12T01:30:17.656Z,-4.46
2023-03-12T01:33:03.383Z,-4.44
2023-03-12T01:35:49.216Z,-4.44
2023-03-12T01:38:35.295Z,-4.40
2023-03-12T01:41:21.944Z,-4.36
2023-03-12T01:44:08.141Z,-4.37
2023-03-12T01:46:53.742Z,-4.35
2023-03-12T01:49:42.319Z,-4.34
2023-03-12T01:52:32.292Z,-4.47
2023-03-12T01:55:18.690Z,-4.33
2023-03-12T01:58:07.900Z,-4.28
2023-03-12T02:00:53.891Z,-4.32
2023-03-12T02:03:39.760Z,-4.26
2023-03-12T02:06:36.974Z,-4.23
2023-03-12T02:09:22.430Z,-4.21
2023-03-12T02:12:09.162Z,-4.35
2023-03-12T02:14:54.651Z,-4.21
2023-03-12T02:17:40.558Z,-4.21
2023-03-12T02:20:39.844Z,-4.19
2023-03-12T02:23:56.499Z,-4.18
2023-03-12T02:26:43.059Z,-4.22
2023-03-12T02:29:31.840Z,-4.22
2023-03-12T02:32:23.320Z,-4.21
2023-03-12T02:35:10.075Z,-4.23
2023-03-12T02:37:56.820Z,-4.12
2023-03-12T02:40:47.578Z,-4.06
2023-03-12T02:43:33.054Z,-4.56
2023-03-12T02:46:18.473Z,-3.99
2023-03-12T02:49:04.378Z,-3.95
2023-03-12T02:51:50.022Z,-3.98
2023-03-12T02:54:35.645Z,-3.97
2023-03-12T02:57:20.948Z,-3.91
2023-03-12T03:00:10.812Z,-3.95
2023-03-12T03:02:57.999Z,-3.95
2023-03-12T03:05:43.459Z,-3.85
2023-03-12T03:08:28.598Z,-3.82
2023-03-12T03:11:14.024Z,-3.80
2023-03-12T03:13:59.464Z,-3.77
2023-03-12T03:16:45.020Z,-3.78
2023-03-12T03:19:30.721Z,-3.77
2023-03-12T03:22:17.460Z,-3.89
2023-03-12T03:25:03.247Z,-3.80
2023-03-12T03:27:49.012Z,-3.82
2023-03-12T03:30:34.547Z,-3.80
2023-03-12T03:33:21.896Z,-3.88
2023-03-12T03:36:08.712Z,-3.92
2023-03-12T03:38:58.313Z,-3.90
2023-03-12T03:41:43.828Z,-3.86
2023-03-12T03:44:29.230Z,-3.96
2023-03-12T03:47:14.804Z,-3.78
2023-03-12T03:50:00.023Z,-3.77
2023-03-12T03:52:45.440Z,-3.87
2023-03-12T03:55:31.326Z,-3.74
2023-03-12T03:58:16.710Z,-3.74
2023-03-12T04:01:02.520Z,-3.76
2023-03-12T04:03:47.945Z,-3.73
2023-03-12T04:06:33.255Z,-3.93
2023-03-12T04:09:18.839Z,-3.71
2023-03-12T04:12:04.565Z,-3.68
2023-03-12T04:14:50.271Z,-3.65
2023-03-12T04:17:35.616Z,-3.64
2023-03-12T04:20:21.487Z,-3.65
2023-03-12T04:23:07.082Z,-3.66
2023-03-12T04:25:52.140Z,-3.64
2023-03-12T04:28:38.198Z,-3.61
2023-03-12T04:31:23.496Z,-3.63
2023-03-12T04:34:11.464Z,-3.64
2023-03-12T04:37:01.489Z,-3.75
2023-03-12T04:39:46.851Z,-3.61
2023-03-12T04:42:35.242Z,-3.61
2023-03-12T04:45:20.782Z,-3.62
2023-03-12T04:48:06.264Z,-3.60
2023-03-12T04:50:51.514Z,-3.60
2023-03-12T04:53:37.114Z,-3.68
2023-03-12T04:56:22.922Z,-3.61
2023-03-12T04:59:08.071Z,-3.63
2023-03-12T05:01:53.314Z,-4.07
2023-03-12T05:04:43.338Z,-3.58
2023-03-12T05:07:28.849Z,-3.62
2023-03-12T05:10:13.999Z,-3.63
2023-03-12T05:12:59.332Z,-3.91
2023-03-12T05:15:45.988Z,-3.96
2023-03-12T05:18:31.150Z,-3.62
2023-03-12T05:21:19.096Z,-3.61
2023-03-12T05:24:04.541Z,-3.61
2023-03-12T05:26:50.239Z,-3.61
2023-03-12T05:29:39.159Z,-3.67
2023-03-12T05:32:25.150Z,-3.59
2023-03-12T05:35:11.307Z,-3.61
2023-03-12T05:37:58.153Z,-3.59
2023-03-12T05:40:44.040Z,-3.58
2023-03-12T05:43:29.391Z,-3.58
2023-03-12T05:46:15.456Z,-3.60
2023-03-12T05:49:00.868Z,-3.57
2023-03-12T05:51:48.941Z,-3.69
2023-03-12T05:54:34.113Z,-3.55
2023-03-12T05:57:22.294Z,-3.58
2023-03-12T06:00:08.648Z,-3.96
2023-03-12T06:03:08.438Z,-3.82
2023-03-12T06:05:54.063Z,-3.71
2023-03-12T06:08:41.291Z,-3.80
2023-03-12T06:11:27.233Z,-3.54
2023-03-12T06:14:12.834Z,-3.49
2023-03-12T06:16:58.321Z,-3.84
2023-03-12T06:19:43.863Z,-3.69
2023-03-12T06:22:28.980Z,-4.71
2023-03-12T06:25:14.471Z,-3.76
2023-03-12T06:27:59.943Z,-3.53
2023-03-12T06:30:45.476Z,-3.77
2023-03-12T06:33:31.356Z,-3.58
2023-03-12T06:36:17.522Z,-3.67
2023-03-12T06:39:03.721Z,-3.72
2023-03-12T06:41:48.899Z,-3.46
2023-03-12T06:44:34.508Z,-3.17
2023-03-12T06:47:19.707Z,-3.29
2023-03-12T06:50:05.523Z,-3.00
2023-03-12T06:52:51.134Z,-2.84
2023-03-12T06:55:36.155Z,-2.71
2023-03-12T06:58:21.361Z,-3.13
2023-03-12T07:01:06.589Z,-2.67
2023-03-12T07:03:52.139Z,-2.94
2023-03-12T07:06:37.792Z,-2.68
2023-03-12T07:09:23.965Z,-2.59
2023-03-12T07:12:09.631Z,-2.27
2023-03-12T07:14:55.262Z,-2.48
2023-03-12T07:17:43.607Z,-2.32
2023-03-12T07:20:29.286Z,-2.11
2023-03-12T07:23:14.714Z,-1.79
2023-03-12T07:26:00.035Z,-1.63
2023-03-12T07:28:45.718Z,-1.59
2023-03-12T07:31:31.300Z,-1.68
2023-03-12T07:34:16.579Z,-2.11
2023-03-12T07:37:01.800Z,-2.12
2023-03-12T07:39:47.513Z,-1.94
2023-03-12T07:42:33.229Z,-1.56
2023-03-12T07:45:18.943Z,-1.27
2023-03-12T07:48:05.018Z,-1.47
2023-03-12T07:50:50.872Z,-1.51
2023-03-12T07:53:36.177Z,-1.80
2023-03-12T07:56:21.529Z,-2.26
2023-03-12T07:59:07.422Z,-1.67
2023-03-12T08:01:52.925Z,-1.40
2023-03-12T08:04:38.689Z,-1.24
2023-03-12T08:07:23.819Z,-1.07
2023-03-12T08:10:10.137Z,-0.83
2023-03-12T08:12:55.550Z,-0.91
2023-03-12T08:15:40.811Z,-0.79
2023-03-12T08:18:26.202Z,-0.59
2023-03-12T08:21:11.733Z,-1.02
2023-03-12T08:23:56.931Z,-1.98
2023-03-12T08:26:42.186Z,-0.55
2023-03-12T08:29:27.804Z,-0.52
2023-03-12T08:32:13.294Z,-0.00
2023-03-12T08:34:59.943Z,-0.06
2023-03-12T08:37:45.399Z,0.12
2023-03-12T08:40:31.331Z,-0.55
2023-03-12T08:43:16.919Z,-0.76
2023-03-12T08:46:03.175Z,-0.49
2023-03-12T08:48:48.617Z,-0.11
2023-03-12T08:51:33.652Z,-0.52
2023-03-12T08:54:20.769Z,-0.38
2023-03-12T08:57:06.306Z,-0.80
2023-03-12T08:59:51.534Z,-0.63
2023-03-12T09:02:37.835Z,-0.62
2023-03-12T09:05:25.238Z,-0.44
2023-03-12T09:08:11.702Z,-0.11
2023-03-12T09:10:57.243Z,-0.16
2023-03-12T09:14:33.450Z,-0.28
2023-03-12T09:16:50.216Z,-0.10
2023-03-12T09:19:35.529Z,-0.00
2023-03-12T09:22:21.505Z,0.03
2023-03-12T09:25:08.921Z,-0.10
2023-03-12T09:27:54.197Z,0.38
2023-03-12T09:30:40.368Z,0.25
2023-03-12T09:33:25.892Z,0.49
2023-03-12T09:36:11.471Z,0.30
2023-03-12T09:38:56.764Z,0.10
2023-03-12T09:41:45.798Z,-0.43
2023-03-12T09:44:39.792Z,-0.10
2023-03-12T09:47:46.510Z,-0.11
2023-03-12T09:50:37.592Z,0.21
2023-03-12T09:53:48.312Z,-0.05
2023-03-12T09:56:34.472Z,0.24
2023-03-12T09:59:19.870Z,-0.03
2023-03-12T10:02:26.590Z,0.16
2023-03-12T10:05:36.676Z,0.03
2023-03-12T10:08:27.310Z,0.10
2023-03-12T10:11:45.441Z,0.26
2023-03-12T10:14:42.580Z,0.21
2023-03-12T10:17:49.492Z,0.14
2023-03-12T10:20:59.378Z,0.30
2023-03-12T10:23:52.182Z,-0.02
2023-03-12T10:26:40.320Z,0.07
2023-03-12T10:29:31.493Z,0.26
2023-03-12T10:32:22.761Z,0.48
2023-03-12T10:35:23.186Z,0.68
2023-03-12T10:38:26.364Z,0.44
2023-03-12T10:41:16.943Z,0.01
2023-03-12T10:44:08.545Z,0.21
2023-03-12T10:47:15.524Z,0.24
2023-03-12T10:50:20.568Z,0.19
2023-03-12T10:53:22.151Z,0.23
2023-03-12T10:56:13.619Z,0.14
2023-03-12T10:58:59.311Z,0.23
2023-03-12T11:01:49.839Z,0.10
2023-03-12T11:04:35.213Z,0.06
2023-03-12T11:07:20.582Z,0.15
2023-03-12T11:10:05.790Z,0.33
2023-03-12T11:12:56.251Z,0.21
2023-03-12T11:15:43.382Z,0.03
2023-03-12T11:18:31.541Z,0.21
2023-03-12T11:21:18.205Z,0.32
2023-03-12T11:24:05.518Z,0.04
2023-03-12T11:26:57.226Z,0.20
2023-03-12T11:29:49.306Z,0.35
2023-03-12T11:32:39.538Z,0.20
2023-03-12T11:35:41.261Z,0.06
2023-03-12T11:38:34.866Z,0.28
2023-03-12T11:41:27.143Z,0.05
2023-03-12T11:44:48.821Z,0.12
2023-03-12T11:47:46.353Z,0.22
2023-03-12T11:51:05.725Z,0.20
2023-03-12T11:53:53.780Z,0.20
2023-03-12T11:56:45.158Z,0.26
2023-03-12T12:00:02.298Z,0.08
2023-03-12T12:03:24.745Z,-0.18
2023-03-12T12:06:16.133Z,0.05
2023-03-12T12:09:28.471Z,0.23
2023-03-12T12:12:51.671Z,0.20
2023-03-12T12:15:48.070Z,0.01
2023-03-12T12:19:07.128Z,0.18
2023-03-12T12:21:55.521Z,0.14
2023-03-12T12:24:47.046Z,-0.01
2023-03-12T12:27:41.573Z,-0.21
2023-03-12T12:30:57.490Z,-0.08
2023-03-12T12:33:50.599Z,-0.20
2023-03-12T12:36:36.630Z,-0.02
2023-03-12T12:39:40.081Z,-0.08
2023-03-12T12:42:31.691Z,-0.21
2023-03-12T12:45:17.483Z,0.18
2023-03-12T12:48:29.321Z,0.16
2023-03-12T12:51:19.511Z,0.15
2023-03-12T12:54:12.763Z,0.28
2023-03-12T12:57:15.509Z,0.27
2023-03-12T13:00:25.380Z,0.11
2023-03-12T13:03:23.652Z,0.05
2023-03-12T13:06:09.052Z,0.10
2023-03-12T13:08:54.510Z,0.12
2023-03-12T13:11:49.411Z,0.12
2023-03-12T13:14:38.808Z,0.03
2023-03-12T13:17:55.959Z,-0.11
2023-03-12T13:21:01.591Z,0.03
2023-03-12T13:24:03.004Z,-0.23
2023-03-12T13:27:02.615Z,0.38
2023-03-12T13:29:48.379Z,0.61
2023-03-12T13:32:59.568Z,0.08
2023-03-12T13:36:10.425Z,0.41
2023-03-12T13:39:30.780Z,0.37
2023-03-12T13:42:25.218Z,0.53
2023-03-12T13:45:26.096Z,0.52
2023-03-12T13:48:16.220Z,0.51
2023-03-12T13:51:16.508Z,0.50
2023-03-12T13:54:03.555Z,0.65
2023-03-12T13:57:04.447Z,0.68
2023-03-12T13:59:51.347Z,0.86
2023-03-12T14:02:43.757Z,1.02
2023-03-12T14:05:30.762Z,1.00
2023-03-12T14:08:34.552Z,1.19
2023-03-12T14:11:31.727Z,1.02
2023-03-12T14:14:32.994Z,1.05
2023-03-12T14:17:25.530Z,1.08
2023-03-12T14:20:20.353Z,1.03
2023-03-12T14:23:09.691Z,0.99
2023-03-12T14:26:02.317Z,0.98
2023-03-12T14:28:57.684Z,0.82
2023-03-12T14:31:43.945Z,0.98
2023-03-12T14:34:38.639Z,0.99
2023-03-12T14:37:32.582Z,1.14
2023-03-12T14:40:41.828Z,1.11
2023-03-12T14:43:35.148Z,0.94
2023-03-12T14:46:23.293Z,1.02
2023-03-12T14:49:19.288Z,0.92
2023-03-12T14:52:04.858Z,1.11
2023-03-12T14:54:54.317Z,1.08
2023-03-12T14:57:39.457Z,1.15
2023-03-12T15:00:27.472Z,1.25
2023-03-12T15:03:16.486Z,1.24
2023-03-12T15:06:01.715Z,0.80
2023-03-12T15:08:47.309Z,1.18
2023-03-12T15:11:35.860Z,1.28
2023-03-12T15:14:23.484Z,1.46
2023-03-12T15:17:17.545Z,1.63
2023-03-12T15:20:07.135Z,1.41
2023-03-12T15:22:54.057Z,1.60
2023-03-12T15:25:39.580Z,1.55
2023-03-12T15:28:27.233Z,1.54
2023-03-12T15:31:15.819Z,1.50
2023-03-12T15:34:04.720Z,1.80
2023-03-12T15:36:50.211Z,1.90
2023-03-12T15:39:38.244Z,1.93
2023-03-12T15:42:25.995Z,1.47
2023-03-12T15:45:29.611Z,1.59
2023-03-12T15:48:21.329Z,1.37
2023-03-12T15:51:30.821Z,1.63
2023-03-12T15:54:16.156Z,1.67
2023-03-12T15:57:22.143Z,1.44
2023-03-12T16:00:10.381Z,1.54
2023-03-12T16:02:57.281Z,1.39
2023-03-12T16:05:43.278Z,1.42
2023-03-12T16:08:56.762Z,1.83
2023-03-12T16:11:43.838Z,1.83
2023-03-12T16:14:34.948Z,1.59
2023-03-12T16:17:21.437Z,1.84
2023-03-12T16:20:09.446Z,1.88
2023-03-12T16:22:55.906Z,1.60
2023-03-12T16:25:45.961Z,1.69
2023-03-12T16:28:33.886Z,1.30
2023-03-12T16:31:19.078Z,1.56
2023-03-12T16:34:04.655Z,1.72
2023-03-12T16:36:50.274Z,1.77
2023-03-12T16:39:35.918Z,1.42
2023-03-12T16:42:21.366Z,1.51
2023-03-12T16:45:10.157Z,1.65
2023-03-12T16:48:00.228Z,1.74
2023-03-12T16:50:51.414Z,1.87
2023-03-12T16:53:36.694Z,1.99
2023-03-12T16:56:24.486Z,1.81
2023-03-12T16:59:28.273Z,1.53
2023-03-12T17:02:18.611Z,1.62
2023-03-12T17:05:04.334Z,1.72
2023-03-12T17:07:51.023Z,1.68
2023-03-12T17:10:36.446Z,1.35
2023-03-12T17:13:25.676Z,1.96
2023-03-12T17:16:12.749Z,1.61
2023-03-12T17:18:58.098Z,2.05
2023-03-12T17:21:44.570Z,2.01
2023-03-12T17:24:30.013Z,1.96
2023-03-12T17:27:15.626Z,1.98
2023-03-12T17:30:01.594Z,1.97
2023-03-12T17:32:46.701Z,1.91
2023-03-12T17:35:32.430Z,2.01
2023-03-12T17:38:17.613Z,2.07
2023-03-12T17:41:04.782Z,2.07
2023-03-12T17:43:51.272Z,2.04
2023-03-12T17:46:36.896Z,2.12
2023-03-12T17:49:22.429Z,2.24
2023-03-12T17:52:08.183Z,2.04
2023-03-12T17:54:53.575Z,2.02
2023-03-12T17:57:39.446Z,2.50
2023-03-12T18:00:24.955Z,2.27
2023-03-12T18:03:10.600Z,2.12
2023-03-12T18:05:55.997Z,2.42
2023-03-12T18:08:41.280Z,2.31
2023-03-12T18:11:26.654Z,2.28
2023-03-12T18:14:11.860Z,2.45
2023-03-12T18:16:57.319Z,2.49
2023-03-12T18:19:42.663Z,2.53
2023-03-12T18:22:28.162Z,2.46
2023-03-12T18:25:14.420Z,2.51
2023-03-12T18:27:59.698Z,2.63
2023-03-12T18:30:46.051Z,2.53
2023-03-12T18:33:31.298Z,2.60
2023-03-12T18:36:16.577Z,2.51
2023-03-12T18:39:01.959Z,3.11
2023-03-12T18:41:48.182Z,3.22
2023-03-12T18:44:33.364Z,3.08
2023-03-12T18:47:19.263Z,3.16
2023-03-12T18:50:07.912Z,3.15
2023-03-12T18:52:53.299Z,2.97
2023-03-12T18:55:38.427Z,2.96
2023-03-12T18:58:25.925Z,3.02
2023-03-12T19:01:11.413Z,3.08
2023-03-12T19:03:57.807Z,3.29
2023-03-12T19:06:51.213Z,3.39
2023-03-12T19:09:37.087Z,3.35
2023-03-12T19:12:22.399Z,3.11
2023-03-12T19:15:08.273Z,3.48
2023-03-12T19:17:53.782Z,3.55
2023-03-12T19:20:39.267Z,3.47
2023-03-12T19:23:24.921Z,3.53
2023-03-12T19:26:10.881Z,3.69
2023-03-12T19:28:56.148Z,3.76
2023-03-12T19:31:43.591Z,3.53
2023-03-12T19:34:29.331Z,3.53
2023-03-12T19:37:17.768Z,3.79
2023-03-12T19:40:04.030Z,3.89
2023-03-12T19:42:50.944Z,3.86
2023-03-12T19:45:36.776Z,3.96
2023-03-12T19:48:23.340Z,3.92
2023-03-12T19:51:10.790Z,3.79
2023-03-12T19:53:56.006Z,3.84
2023-03-12T19:56:41.377Z,3.87
2023-03-12T19:59:26.597Z,3.64
2023-03-12T20:02:14.639Z,3.71
2023-03-12T20:05:01.467Z,3.68
2023-03-12T20:07:47.207Z,3.57
2023-03-12T20:10:32.699Z,3.74
2023-03-12T20:13:17.972Z,3.66
2023-03-12T20:16:04.345Z,3.82
2023-03-12T20:18:50.088Z,3.88
2023-03-12T20:21:35.204Z,4.08
2023-03-12T20:24:20.429Z,4.15
2023-03-12T20:27:06.628Z,4.12
2023-03-12T20:29:51.819Z,4.24
2023-03-12T20:32:37.636Z,4.17
2023-03-12T20:35:23.324Z,4.06
2023-03-12T20:38:09.695Z,4.12
2023-03-12T20:40:55.108Z,3.93
2023-03-12T20:43:41.526Z,4.07
2023-03-12T20:46:27.181Z,4.01
2023-03-12T20:49:13.122Z,4.26
2023-03-12T20:51:58.630Z,4.41
2023-03-12T20:54:44.169Z,4.25
2023-03-12T20:57:29.315Z,4.21
2023-03-12T21:00:14.978Z,4.33
2023-03-12T21:03:00.183Z,4.31
2023-03-12T21:05:56.472Z,4.32
2023-03-12T21:08:41.649Z,4.30
2023-03-12T21:11:26.890Z,4.20
2023-03-12T21:14:12.381Z,4.28
2023-03-12T21:16:57.678Z,4.26
2023-03-12T21:19:43.217Z,4.46
2023-03-12T21:22:32.041Z,4.16
2023-03-12T21:25:17.554Z,4.03
2023-03-12T21:28:04.927Z,4.01
2023-03-12T21:30:50.392Z,3.87
2023-03-12T21:33:36.163Z,4.35
2023-03-12T21:36:21.667Z,4.25
2023-03-12T21:39:07.189Z,4.32
2023-03-12T21:41:52.546Z,4.36
2023-03-12T21:44:38.448Z,4.48
2023-03-12T21:47:23.889Z,4.43
2023-03-12T21:50:10.721Z,4.45
2023-03-12T21:52:55.773Z,4.50
2023-03-12T21:55:41.357Z,4.36
2023-03-12T21:58:28.035Z,4.24
2023-03-12T22:01:17.837Z,4.10
2023-03-12T22:04:03.129Z,4.35
2023-03-12T22:06:48.421Z,4.61
2023-03-12T22:09:33.730Z,4.68
2023-03-12T22:12:19.098Z,4.80
2023-03-12T22:15:06.715Z,4.90
2023-03-12T22:17:52.145Z,4.58
2023-03-12T22:20:37.368Z,4.43
2023-03-12T22:23:23.972Z,4.71
2023-03-12T22:26:09.340Z,4.74
2023-03-12T22:28:56.651Z,4.52
2023-03-12T22:31:41.668Z,4.63
2023-03-12T22:34:26.993Z,4.86
2023-03-12T22:37:12.182Z,4.75
2023-03-12T22:39:57.349Z,4.85
2023-03-12T22:42:49.297Z,4.80
2023-03-12T22:45:35.156Z,4.84
2023-03-12T22:48:20.560Z,4.90
2023-03-12T22:51:06.369Z,4.75
2023-03-12T22:53:53.043Z,4.69
2023-03-12T22:56:38.455Z,4.62
2023-03-12T22:59:23.754Z,4.71
2023-03-12T23:02:09.245Z,4.63
2023-03-12T23:04:54.391Z,4.79
2023-03-12T23:07:39.755Z,4.64
2023-03-12T23:10:25.371Z,4.60
2023-03-12T23:13:10.731Z,4.26
2023-03-12T23:16:01.639Z,4.42
2023-03-12T23:18:48.118Z,4.47
2023-03-12T23:21:33.398Z,4.50
2023-03-12T23:24:18.836Z,4.27
2023-03-12T23:27:04.372Z,4.19
2023-03-12T23:29:50.073Z,4.26
2023-03-12T23:32:35.457Z,4.21
2023-03-12T23:35:20.836Z,4.25
2023-03-12T23:38:06.489Z,4.01
2023-03-12T23:40:52.474Z,4.57
2023-03-12T23:43:38.149Z,4.63
2023-03-12T23:46:23.672Z,4.49
2023-03-12T23:49:08.888Z,4.71
2023-03-12T23:51:54.103Z,4.69
2023-03-12T23:54:39.704Z,4.56
2023-03-12T23:57:24.858Z,4.62
